sensor_id;sensor_type;location;lat;lon;timestamp;P1;durP1;ratioP1;P2;durP2;ratioP2
51366;SDS011;37458;49.428;8.646;2022-12-07T06:49:06;15.93;;;9.20;;
51366;SDS011;37458;49.428;8.646;2022-12-07T06:51:32;17.40;;;10.67;;
51366;SDS011;37458;49.428;8.646;2022-12-07T06:54:01;17.80;;;10.83;;
51366;SDS011;37458;49.428;8.646;2022-12-07T06:56:27;14.03;;;9.90;;
51366;SDS011;37458;49.428;8.646;2022-12-07T06:58:53;15.53;;;10.10;;
51366;SDS011;37458;49.428;8.646;2022-12-07T07:01:19;16.03;;;9.83;;
51366;SDS011;37458;49.428;8.646;2022-12-07T07:03:45;14.43;;;10.03;;
51366;SDS011;37458;49.428;8.646;2022-12-07T07:06:11;15.10;;;9.57;;
51366;SDS011;37458;49.428;8.646;2022-12-07T07:08:38;13.50;;;9.93;;
51366;SDS011;37458;49.428;8.646;2022-12-07T07:11:04;13.37;;;9.50;;
51366;SDS011;37458;49.428;8.646;2022-12-07T07:13:30;13.60;;;9.10;;
51366;SDS011;37458;49.428;8.646;2022-12-07T07:15:57;14.17;;;8.90;;
51366;SDS011;37458;49.428;8.646;2022-12-07T07:18:23;13.97;;;9.50;;
51366;SDS011;37458;49.428;8.646;2022-12-07T07:20:49;14.97;;;9.30;;
51366;SDS011;37458;49.428;8.646;2022-12-07T07:23:15;13.70;;;9.80;;
51366;SDS011;37458;49.428;8.646;2022-12-07T07:25:41;13.47;;;9.13;;
51366;SDS011;37458;49.428;8.646;2022-12-07T07:28:07;14.13;;;9.40;;
51366;SDS011;37458;49.428;8.646;2022-12-07T07:30:33;13.80;;;10.23;;
51366;SDS011;37458;49.428;8.646;2022-12-07T07:33:00;15.00;;;9.47;;
51366;SDS011;37458;49.428;8.646;2022-12-07T07:35:27;13.10;;;9.53;;
51366;SDS011;37458;49.428;8.646;2022-12-07T07:37:53;14.47;;;8.47;;
51366;SDS011;37458;49.428;8.646;2022-12-07T07:40:19;13.57;;;9.87;;
51366;SDS011;37458;49.428;8.646;2022-12-07T07:42:49;13.63;;;9.47;;
51366;SDS011;37458;49.428;8.646;2022-12-07T07:45:15;15.73;;;9.93;;
51366;SDS011;37458;49.428;8.646;2022-12-07T07:47:41;11.47;;;8.83;;
51366;SDS011;37458;49.428;8.646;2022-12-07T07:50:07;12.57;;;9.27;;
51366;SDS011;37458;49.428;8.646;2022-12-07T07:52:33;10.40;;;8.80;;
51366;SDS011;37458;49.428;8.646;2022-12-07T07:54:59;12.97;;;9.30;;
51366;SDS011;37458;49.428;8.646;2022-12-07T07:57:25;12.33;;;8.73;;
51366;SDS011;37458;49.428;8.646;2022-12-07T07:59:52;14.00;;;9.33;;
51366;SDS011;37458;49.428;8.646;2022-12-07T08:02:19;12.43;;;7.90;;
51366;SDS011;37458;49.428;8.646;2022-12-07T08:04:45;12.17;;;8.13;;
51366;SDS011;37458;49.428;8.646;2022-12-07T08:07:11;15.13;;;8.10;;
51366;SDS011;37458;49.428;8.646;2022-12-07T08:09:37;11.60;;;7.90;;
51366;SDS011;37458;49.428;8.646;2022-12-07T08:12:04;11.60;;;8.20;;
51366;SDS011;37458;49.428;8.646;2022-12-07T08:14:30;11.60;;;7.90;;
51366;SDS011;37458;49.428;8.646;2022-12-07T08:16:56;10.37;;;7.87;;
51366;SDS011;37458;49.428;8.646;2022-12-07T08:19:22;13.93;;;8.70;;
51366;SDS011;37458;49.428;8.646;2022-12-07T08:21:48;15.67;;;8.70;;
51366;SDS011;37458;49.428;8.646;2022-12-07T08:24:14;12.33;;;8.43;;
51366;SDS011;37458;49.428;8.646;2022-12-07T08:26:40;16.43;;;8.97;;
51366;SDS011;37458;49.428;8.646;2022-12-07T08:29:06;15.03;;;8.20;;
51366;SDS011;37458;49.428;8.646;2022-12-07T08:31:35;10.97;;;7.87;;
51366;SDS011;37458;49.428;8.646;2022-12-07T08:34:01;11.43;;;8.07;;
51366;SDS011;37458;49.428;8.646;2022-12-07T08:36:27;10.67;;;7.83;;
51366;SDS011;37458;49.428;8.646;2022-12-07T08:38:53;12.23;;;9.00;;
51366;SDS011;37458;49.428;8.646;2022-12-07T08:41:19;14.17;;;9.30;;
51366;SDS011;37458;49.428;8.646;2022-12-07T08:43:45;13.00;;;9.33;;
51366;SDS011;37458;49.428;8.646;2022-12-07T08:46:13;17.00;;;9.63;;
51366;SDS011;37458;49.428;8.646;2022-12-07T08:48:42;16.37;;;9.80;;
51366;SDS011;37458;49.428;8.646;2022-12-07T08:51:09;13.80;;;9.77;;
51366;SDS011;37458;49.428;8.646;2022-12-07T08:53:35;17.33;;;10.20;;
51366;SDS011;37458;49.428;8.646;2022-12-07T08:56:02;14.63;;;9.00;;
51366;SDS011;37458;49.428;8.646;2022-12-07T08:58:28;14.23;;;9.17;;
51366;SDS011;37458;49.428;8.646;2022-12-07T09:00:54;14.97;;;9.90;;
51366;SDS011;37458;49.428;8.646;2022-12-07T09:03:20;15.63;;;9.27;;
51366;SDS011;37458;49.428;8.646;2022-12-07T09:05:46;12.90;;;8.70;;
51366;SDS011;37458;49.428;8.646;2022-12-07T09:08:12;13.40;;;8.80;;
51366;SDS011;37458;49.428;8.646;2022-12-07T09:10:38;12.87;;;8.93;;
51366;SDS011;37458;49.428;8.646;2022-12-07T09:13:04;13.63;;;9.80;;
51366;SDS011;37458;49.428;8.646;2022-12-07T09:15:30;13.87;;;9.37;;
51366;SDS011;37458;49.428;8.646;2022-12-07T09:17:56;14.60;;;9.00;;
51366;SDS011;37458;49.428;8.646;2022-12-07T09:20:22;12.90;;;9.13;;
51366;SDS011;37458;49.428;8.646;2022-12-07T09:22:49;12.23;;;8.77;;
51366;SDS011;37458;49.428;8.646;2022-12-07T09:25:15;16.40;;;9.93;;
51366;SDS011;37458;49.428;8.646;2022-12-07T09:27:41;17.63;;;10.40;;
51366;SDS011;37458;49.428;8.646;2022-12-07T09:30:07;20.90;;;10.10;;
51366;SDS011;37458;49.428;8.646;2022-12-07T09:32:33;17.50;;;10.63;;
51366;SDS011;37458;49.428;8.646;2022-12-07T09:34:59;18.77;;;10.23;;
51366;SDS011;37458;49.428;8.646;2022-12-07T09:37:25;14.70;;;9.40;;
51366;SDS011;37458;49.428;8.646;2022-12-07T09:39:51;14.37;;;9.20;;
51366;SDS011;37458;49.428;8.646;2022-12-07T09:42:34;12.30;;;9.13;;
51366;SDS011;37458;49.428;8.646;2022-12-07T09:45:00;14.50;;;9.60;;
51366;SDS011;37458;49.428;8.646;2022-12-07T09:47:27;15.00;;;9.43;;
51366;SDS011;37458;49.428;8.646;2022-12-07T09:49:55;12.93;;;8.93;;
51366;SDS011;37458;49.428;8.646;2022-12-07T09:52:25;16.07;;;9.33;;
51366;SDS011;37458;49.428;8.646;2022-12-07T09:54:52;15.23;;;10.00;;
51366;SDS011;37458;49.428;8.646;2022-12-07T09:57:19;13.67;;;8.53;;
51366;SDS011;37458;49.428;8.646;2022-12-07T09:59:49;15.17;;;9.80;;
51366;SDS011;37458;49.428;8.646;2022-12-07T10:04:50;17.43;;;9.10;;
51366;SDS011;37458;49.428;8.646;2022-12-07T10:07:16;13.17;;;9.17;;
51366;SDS011;37458;49.428;8.646;2022-12-07T10:09:42;13.10;;;8.80;;
51366;SDS011;37458;49.428;8.646;2022-12-07T10:12:09;12.17;;;8.40;;
51366;SDS011;37458;49.428;8.646;2022-12-07T10:14:36;12.63;;;9.07;;
51366;SDS011;37458;49.428;8.646;2022-12-07T10:17:08;10.40;;;7.70;;
51366;SDS011;37458;49.428;8.646;2022-12-07T10:19:48;14.37;;;9.37;;
51366;SDS011;37458;49.428;8.646;2022-12-07T10:22:15;11.63;;;8.33;;
51366;SDS011;37458;49.428;8.646;2022-12-07T10:24:42;11.50;;;8.93;;
51366;SDS011;37458;49.428;8.646;2022-12-07T10:27:17;11.43;;;8.33;;
51366;SDS011;37458;49.428;8.646;2022-12-07T10:29:47;13.67;;;9.17;;
51366;SDS011;37458;49.428;8.646;2022-12-07T10:34:42;16.73;;;8.30;;
51366;SDS011;37458;49.428;8.646;2022-12-07T10:40:01;13.20;;;9.07;;
51366;SDS011;37458;49.428;8.646;2022-12-07T10:45:09;12.10;;;8.57;;
51366;SDS011;37458;49.428;8.646;2022-12-07T10:47:36;12.63;;;9.00;;
51366;SDS011;37458;49.428;8.646;2022-12-07T11:00:23;11.27;;;8.00;;
51366;SDS011;37458;49.428;8.646;2022-12-07T11:03:05;14.23;;;8.67;;
51366;SDS011;37458;49.428;8.646;2022-12-07T11:05:56;15.03;;;9.40;;
51366;SDS011;37458;49.428;8.646;2022-12-07T11:11:06;11.97;;;8.30;;
51366;SDS011;37458;49.428;8.646;2022-12-07T11:16:16;15.13;;;8.70;;
51366;SDS011;37458;49.428;8.646;2022-12-07T11:21:33;14.37;;;9.57;;
51366;SDS011;37458;49.428;8.646;2022-12-07T11:32:05;13.10;;;8.50;;
51366;SDS011;37458;49.428;8.646;2022-12-07T11:34:39;12.27;;;8.13;;
51366;SDS011;37458;49.428;8.646;2022-12-07T11:37:20;14.43;;;9.07;;
51366;SDS011;37458;49.428;8.646;2022-12-07T11:39:51;12.40;;;8.27;;
51366;SDS011;37458;49.428;8.646;2022-12-07T11:42:21;12.83;;;8.60;;
51366;SDS011;37458;49.428;8.646;2022-12-07T11:47:16;16.70;;;10.10;;
51366;SDS011;37458;49.428;8.646;2022-12-07T11:52:22;13.47;;;10.07;;
51366;SDS011;37458;49.428;8.646;2022-12-07T11:54:49;15.63;;;9.43;;
51366;SDS011;37458;49.428;8.646;2022-12-07T11:57:19;33.03;;;21.70;;
51366;SDS011;37458;49.428;8.646;2022-12-07T11:59:47;14.23;;;10.10;;
51366;SDS011;37458;49.428;8.646;2022-12-07T12:02:16;15.83;;;12.00;;
51366;SDS011;37458;49.428;8.646;2022-12-07T12:07:15;15.37;;;9.03;;
51366;SDS011;37458;49.428;8.646;2022-12-07T12:09:53;11.87;;;8.70;;
51366;SDS011;37458;49.428;8.646;2022-12-07T12:17:47;13.10;;;9.03;;
51366;SDS011;37458;49.428;8.646;2022-12-07T12:23:05;13.63;;;10.43;;
51366;SDS011;37458;49.428;8.646;2022-12-07T12:25:36;12.97;;;9.53;;
51366;SDS011;37458;49.428;8.646;2022-12-07T12:28:03;13.67;;;8.93;;
51366;SDS011;37458;49.428;8.646;2022-12-07T12:33:01;10.57;;;8.67;;
51366;SDS011;37458;49.428;8.646;2022-12-07T12:38:39;10.80;;;8.50;;
51366;SDS011;37458;49.428;8.646;2022-12-07T12:40:46;11.67;;;8.27;;
51366;SDS011;37458;49.428;8.646;2022-12-07T12:48:42;11.20;;;7.70;;
51366;SDS011;37458;49.428;8.646;2022-12-07T12:51:53;8.93;;;6.03;;
51366;SDS011;37458;49.428;8.646;2022-12-07T12:54:02;9.53;;;5.40;;
51366;SDS011;37458;49.428;8.646;2022-12-07T12:56:38;7.37;;;4.77;;
51366;SDS011;37458;49.428;8.646;2022-12-07T13:01:44;7.17;;;4.33;;
51366;SDS011;37458;49.428;8.646;2022-12-07T13:07:04;5.03;;;3.60;;
51366;SDS011;37458;49.428;8.646;2022-12-07T13:09:33;5.53;;;3.80;;
51366;SDS011;37458;49.428;8.646;2022-12-07T13:12:02;5.20;;;3.70;;
51366;SDS011;37458;49.428;8.646;2022-12-07T13:14:40;9.17;;;3.97;;
51366;SDS011;37458;49.428;8.646;2022-12-07T13:17:08;5.63;;;3.70;;
51366;SDS011;37458;49.428;8.646;2022-12-07T13:24:55;6.13;;;3.50;;
51366;SDS011;37458;49.428;8.646;2022-12-07T13:27:21;5.37;;;3.23;;
51366;SDS011;37458;49.428;8.646;2022-12-07T13:29:48;4.47;;;3.43;;
51366;SDS011;37458;49.428;8.646;2022-12-07T13:32:22;4.90;;;3.37;;
51366;SDS011;37458;49.428;8.646;2022-12-07T13:34:49;5.17;;;3.43;;
51366;SDS011;37458;49.428;8.646;2022-12-07T13:37:20;5.60;;;3.37;;
51366;SDS011;37458;49.428;8.646;2022-12-07T13:39:51;10.03;;;4.70;;
51366;SDS011;37458;49.428;8.646;2022-12-07T13:42:30;5.87;;;4.03;;
51366;SDS011;37458;49.428;8.646;2022-12-07T13:44:57;6.97;;;3.70;;
51366;SDS011;37458;49.428;8.646;2022-12-07T13:49:56;7.03;;;3.60;;
51366;SDS011;37458;49.428;8.646;2022-12-07T13:52:24;4.80;;;3.53;;
51366;SDS011;37458;49.428;8.646;2022-12-07T13:57:22;5.97;;;3.70;;
51366;SDS011;37458;49.428;8.646;2022-12-07T13:59:49;9.33;;;3.70;;
51366;SDS011;37458;49.428;8.646;2022-12-07T14:04:46;9.23;;;4.03;;
51366;SDS011;37458;49.428;8.646;2022-12-07T14:07:19;7.93;;;4.40;;
51366;SDS011;37458;49.428;8.646;2022-12-07T14:09:56;6.80;;;4.10;;
51366;SDS011;37458;49.428;8.646;2022-12-07T14:12:23;7.03;;;3.97;;
51366;SDS011;37458;49.428;8.646;2022-12-07T14:14:49;6.70;;;3.60;;
51366;SDS011;37458;49.428;8.646;2022-12-07T14:17:17;4.10;;;3.37;;
51366;SDS011;37458;49.428;8.646;2022-12-07T14:19:48;4.20;;;3.60;;
51366;SDS011;37458;49.428;8.646;2022-12-07T14:22:25;3.90;;;3.30;;
51366;SDS011;37458;49.428;8.646;2022-12-07T14:24:58;12.63;;;3.87;;
51366;SDS011;37458;49.428;8.646;2022-12-07T14:27:24;6.30;;;3.57;;
51366;SDS011;37458;49.428;8.646;2022-12-07T14:29:55;6.53;;;3.60;;
51366;SDS011;37458;49.428;8.646;2022-12-07T14:32:26;4.37;;;3.60;;
51366;SDS011;37458;49.428;8.646;2022-12-07T14:37:25;7.97;;;4.70;;
51366;SDS011;37458;49.428;8.646;2022-12-07T14:39:51;6.43;;;4.47;;
51366;SDS011;37458;49.428;8.646;2022-12-07T14:42:17;6.60;;;4.67;;
51366;SDS011;37458;49.428;8.646;2022-12-07T14:44:43;7.87;;;5.77;;
51366;SDS011;37458;49.428;8.646;2022-12-07T14:47:09;8.67;;;5.47;;
51366;SDS011;37458;49.428;8.646;2022-12-07T14:49:36;8.77;;;5.73;;
51366;SDS011;37458;49.428;8.646;2022-12-07T14:52:02;7.60;;;5.40;;
51366;SDS011;37458;49.428;8.646;2022-12-07T14:54:29;7.90;;;5.67;;
51366;SDS011;37458;49.428;8.646;2022-12-07T14:56:56;7.83;;;5.40;;
51366;SDS011;37458;49.428;8.646;2022-12-07T14:59:22;6.37;;;5.47;;
51366;SDS011;37458;49.428;8.646;2022-12-07T15:01:48;6.87;;;4.73;;
51366;SDS011;37458;49.428;8.646;2022-12-07T15:04:14;7.53;;;5.00;;
51366;SDS011;37458;49.428;8.646;2022-12-07T15:06:40;5.40;;;4.00;;
51366;SDS011;37458;49.428;8.646;2022-12-07T15:09:09;6.77;;;4.23;;
51366;SDS011;37458;49.428;8.646;2022-12-07T15:11:36;8.97;;;4.50;;
51366;SDS011;37458;49.428;8.646;2022-12-07T15:14:02;10.50;;;5.00;;
51366;SDS011;37458;49.428;8.646;2022-12-07T15:16:37;5.40;;;3.50;;
51366;SDS011;37458;49.428;8.646;2022-12-07T15:19:05;5.17;;;3.50;;
51366;SDS011;37458;49.428;8.646;2022-12-07T15:21:31;6.57;;;4.60;;
51366;SDS011;37458;49.428;8.646;2022-12-07T15:23:57;5.03;;;3.33;;
51366;SDS011;37458;49.428;8.646;2022-12-07T15:26:23;5.07;;;3.50;;
51366;SDS011;37458;49.428;8.646;2022-12-07T15:28:49;4.80;;;3.70;;
51366;SDS011;37458;49.428;8.646;2022-12-07T15:31:15;6.30;;;3.43;;
51366;SDS011;37458;49.428;8.646;2022-12-07T15:33:42;6.00;;;4.20;;
51366;SDS011;37458;49.428;8.646;2022-12-07T15:36:08;5.33;;;4.23;;
51366;SDS011;37458;49.428;8.646;2022-12-07T15:38:37;6.77;;;4.90;;
51366;SDS011;37458;49.428;8.646;2022-12-07T15:41:03;7.47;;;5.10;;
51366;SDS011;37458;49.428;8.646;2022-12-07T15:43:29;8.60;;;5.10;;
51366;SDS011;37458;49.428;8.646;2022-12-07T15:46:14;8.93;;;5.50;;
51366;SDS011;37458;49.428;8.646;2022-12-07T15:48:40;6.73;;;5.27;;
51366;SDS011;37458;49.428;8.646;2022-12-07T15:51:07;8.97;;;5.17;;
51366;SDS011;37458;49.428;8.646;2022-12-07T15:53:34;5.90;;;4.97;;
51366;SDS011;37458;49.428;8.646;2022-12-07T15:56:00;7.83;;;5.60;;
51366;SDS011;37458;49.428;8.646;2022-12-07T15:58:26;9.57;;;6.00;;
51366;SDS011;37458;49.428;8.646;2022-12-07T16:00:52;10.03;;;5.50;;
51366;SDS011;37458;49.428;8.646;2022-12-07T16:03:18;6.90;;;5.90;;
51366;SDS011;37458;49.428;8.646;2022-12-07T16:05:50;8.13;;;6.00;;
51366;SDS011;37458;49.428;8.646;2022-12-07T16:08:17;8.63;;;5.63;;
51366;SDS011;37458;49.428;8.646;2022-12-07T16:10:43;7.23;;;5.77;;
51366;SDS011;37458;49.428;8.646;2022-12-07T16:13:09;8.10;;;5.87;;
51366;SDS011;37458;49.428;8.646;2022-12-07T16:15:41;10.73;;;6.50;;
51366;SDS011;37458;49.428;8.646;2022-12-07T16:18:08;7.20;;;5.60;;
51366;SDS011;37458;49.428;8.646;2022-12-07T16:20:34;6.90;;;5.67;;
51366;SDS011;37458;49.428;8.646;2022-12-07T16:23:00;8.70;;;5.93;;
51366;SDS011;37458;49.428;8.646;2022-12-07T16:25:27;8.07;;;6.47;;
51366;SDS011;37458;49.428;8.646;2022-12-07T16:27:53;11.27;;;5.70;;
51366;SDS011;37458;49.428;8.646;2022-12-07T16:30:19;10.10;;;6.93;;
51366;SDS011;37458;49.428;8.646;2022-12-07T16:32:45;11.00;;;6.13;;
51366;SDS011;37458;49.428;8.646;2022-12-07T16:35:11;10.13;;;6.73;;
51366;SDS011;37458;49.428;8.646;2022-12-07T16:37:37;10.57;;;7.03;;
51366;SDS011;37458;49.428;8.646;2022-12-07T16:40:04;9.90;;;6.50;;
51366;SDS011;37458;49.428;8.646;2022-12-07T16:42:33;7.63;;;5.57;;
51366;SDS011;37458;49.428;8.646;2022-12-07T16:45:00;8.10;;;6.30;;
51366;SDS011;37458;49.428;8.646;2022-12-07T16:47:26;9.13;;;6.23;;
51366;SDS011;37458;49.428;8.646;2022-12-07T16:49:52;8.43;;;6.00;;
51366;SDS011;37458;49.428;8.646;2022-12-07T16:52:18;6.83;;;5.50;;
51366;SDS011;37458;49.428;8.646;2022-12-07T16:54:44;9.07;;;5.93;;
51366;SDS011;37458;49.428;8.646;2022-12-07T16:57:10;8.30;;;5.77;;
51366;SDS011;37458;49.428;8.646;2022-12-07T16:59:36;8.20;;;5.90;;
51366;SDS011;37458;49.428;8.646;2022-12-07T17:02:02;8.53;;;5.73;;
51366;SDS011;37458;49.428;8.646;2022-12-07T17:04:28;10.60;;;6.30;;
51366;SDS011;37458;49.428;8.646;2022-12-07T17:06:54;8.27;;;5.63;;
51366;SDS011;37458;49.428;8.646;2022-12-07T17:09:20;8.67;;;6.30;;
51366;SDS011;37458;49.428;8.646;2022-12-07T17:11:46;12.20;;;6.07;;
51366;SDS011;37458;49.428;8.646;2022-12-07T17:14:12;10.50;;;6.40;;
51366;SDS011;37458;49.428;8.646;2022-12-07T17:16:57;12.93;;;6.23;;
51366;SDS011;37458;49.428;8.646;2022-12-07T17:19:23;8.80;;;6.37;;
51366;SDS011;37458;49.428;8.646;2022-12-07T17:21:50;10.67;;;6.50;;
51366;SDS011;37458;49.428;8.646;2022-12-07T17:24:16;7.73;;;5.83;;
51366;SDS011;37458;49.428;8.646;2022-12-07T17:26:43;9.33;;;6.63;;
51366;SDS011;37458;49.428;8.646;2022-12-07T17:29:10;16.47;;;8.07;;
51366;SDS011;37458;49.428;8.646;2022-12-07T17:31:37;15.03;;;7.87;;
51366;SDS011;37458;49.428;8.646;2022-12-07T17:34:03;11.87;;;7.43;;
51366;SDS011;37458;49.428;8.646;2022-12-07T17:36:30;13.73;;;7.93;;
51366;SDS011;37458;49.428;8.646;2022-12-07T17:38:56;14.80;;;9.87;;
51366;SDS011;37458;49.428;8.646;2022-12-07T17:41:24;21.23;;;12.57;;
51366;SDS011;37458;49.428;8.646;2022-12-07T17:44:10;14.87;;;9.10;;
51366;SDS011;37458;49.428;8.646;2022-12-07T17:46:37;14.43;;;8.57;;
51366;SDS011;37458;49.428;8.646;2022-12-07T17:49:03;12.07;;;8.77;;
51366;SDS011;37458;49.428;8.646;2022-12-07T17:51:29;12.53;;;8.20;;
51366;SDS011;37458;49.428;8.646;2022-12-07T17:54:14;11.30;;;9.03;;
51366;SDS011;37458;49.428;8.646;2022-12-07T17:56:40;13.13;;;8.23;;
51366;SDS011;37458;49.428;8.646;2022-12-07T17:59:06;16.50;;;8.30;;
51366;SDS011;37458;49.428;8.646;2022-12-07T18:01:33;12.20;;;9.17;;
51366;SDS011;37458;49.428;8.646;2022-12-07T18:03:59;13.87;;;8.87;;
51366;SDS011;37458;49.428;8.646;2022-12-07T18:06:25;13.13;;;9.43;;
51366;SDS011;37458;49.428;8.646;2022-12-07T18:08:51;12.73;;;9.80;;
51366;SDS011;37458;49.428;8.646;2022-12-07T18:11:17;13.70;;;9.73;;
51366;SDS011;37458;49.428;8.646;2022-12-07T18:13:43;16.70;;;9.90;;
51366;SDS011;37458;49.428;8.646;2022-12-07T18:16:17;13.80;;;9.87;;
51366;SDS011;37458;49.428;8.646;2022-12-07T18:18:44;15.70;;;9.77;;
51366;SDS011;37458;49.428;8.646;2022-12-07T18:21:14;13.10;;;9.23;;
51366;SDS011;37458;49.428;8.646;2022-12-07T18:23:45;14.03;;;10.27;;
51366;SDS011;37458;49.428;8.646;2022-12-07T18:26:12;15.13;;;10.30;;
51366;SDS011;37458;49.428;8.646;2022-12-07T18:28:41;14.37;;;9.93;;
51366;SDS011;37458;49.428;8.646;2022-12-07T18:31:08;14.37;;;10.20;;
51366;SDS011;37458;49.428;8.646;2022-12-07T18:33:34;13.50;;;9.40;;
51366;SDS011;37458;49.428;8.646;2022-12-07T18:36:01;15.60;;;11.37;;
51366;SDS011;37458;49.428;8.646;2022-12-07T18:38:27;14.60;;;10.43;;
51366;SDS011;37458;49.428;8.646;2022-12-07T18:40:53;14.20;;;10.33;;
51366;SDS011;37458;49.428;8.646;2022-12-07T18:43:19;17.30;;;10.30;;
51366;SDS011;37458;49.428;8.646;2022-12-07T18:45:46;16.40;;;9.70;;
51366;SDS011;37458;49.428;8.646;2022-12-07T18:48:15;14.90;;;9.37;;
51366;SDS011;37458;49.428;8.646;2022-12-07T18:50:42;15.10;;;10.50;;
51366;SDS011;37458;49.428;8.646;2022-12-07T18:53:08;15.20;;;9.77;;
51366;SDS011;37458;49.428;8.646;2022-12-07T18:55:34;17.43;;;11.00;;
51366;SDS011;37458;49.428;8.646;2022-12-07T18:58:00;14.97;;;9.73;;
51366;SDS011;37458;49.428;8.646;2022-12-07T19:00:27;15.73;;;9.97;;
51366;SDS011;37458;49.428;8.646;2022-12-07T19:02:53;14.53;;;10.10;;
51366;SDS011;37458;49.428;8.646;2022-12-07T19:05:20;18.90;;;10.97;;
51366;SDS011;37458;49.428;8.646;2022-12-07T19:07:47;14.20;;;10.40;;
51366;SDS011;37458;49.428;8.646;2022-12-07T19:10:14;15.60;;;9.67;;
51366;SDS011;37458;49.428;8.646;2022-12-07T19:12:40;14.47;;;9.97;;
51366;SDS011;37458;49.428;8.646;2022-12-07T19:15:07;13.47;;;9.70;;
51366;SDS011;37458;49.428;8.646;2022-12-07T19:17:33;14.93;;;9.63;;
51366;SDS011;37458;49.428;8.646;2022-12-07T19:19:59;14.30;;;9.87;;
51366;SDS011;37458;49.428;8.646;2022-12-07T19:22:26;14.50;;;10.33;;
51366;SDS011;37458;49.428;8.646;2022-12-07T19:24:53;17.13;;;10.43;;
51366;SDS011;37458;49.428;8.646;2022-12-07T19:27:19;17.37;;;10.17;;
51366;SDS011;37458;49.428;8.646;2022-12-07T19:29:45;17.07;;;10.53;;
51366;SDS011;37458;49.428;8.646;2022-12-07T19:32:11;15.27;;;10.40;;
51366;SDS011;37458;49.428;8.646;2022-12-07T19:34:38;15.83;;;10.87;;
51366;SDS011;37458;49.428;8.646;2022-12-07T19:37:04;16.70;;;10.47;;
51366;SDS011;37458;49.428;8.646;2022-12-07T19:39:30;16.93;;;10.90;;
51366;SDS011;37458;49.428;8.646;2022-12-07T19:41:56;17.00;;;10.57;;
51366;SDS011;37458;49.428;8.646;2022-12-07T19:44:24;19.07;;;11.10;;
51366;SDS011;37458;49.428;8.646;2022-12-07T19:46:50;19.30;;;11.30;;
51366;SDS011;37458;49.428;8.646;2022-12-07T19:49:18;15.57;;;10.67;;
51366;SDS011;37458;49.428;8.646;2022-12-07T19:51:45;16.20;;;10.87;;
51366;SDS011;37458;49.428;8.646;2022-12-07T19:54:12;19.57;;;10.43;;
51366;SDS011;37458;49.428;8.646;2022-12-07T19:56:39;18.57;;;11.13;;
51366;SDS011;37458;49.428;8.646;2022-12-07T19:59:05;16.00;;;9.57;;
51366;SDS011;37458;49.428;8.646;2022-12-07T20:01:32;17.97;;;10.47;;
51366;SDS011;37458;49.428;8.646;2022-12-07T20:03:58;16.97;;;11.83;;
51366;SDS011;37458;49.428;8.646;2022-12-07T20:06:24;18.73;;;11.07;;
51366;SDS011;37458;49.428;8.646;2022-12-07T20:08:51;19.00;;;11.40;;
51366;SDS011;37458;49.428;8.646;2022-12-07T20:11:18;20.37;;;11.23;;
51366;SDS011;37458;49.428;8.646;2022-12-07T20:14:07;16.90;;;11.33;;
51366;SDS011;37458;49.428;8.646;2022-12-07T20:16:34;21.13;;;11.90;;
51366;SDS011;37458;49.428;8.646;2022-12-07T20:19:00;17.93;;;12.07;;
51366;SDS011;37458;49.428;8.646;2022-12-07T20:21:26;18.03;;;11.57;;
51366;SDS011;37458;49.428;8.646;2022-12-07T20:23:52;20.70;;;12.03;;
51366;SDS011;37458;49.428;8.646;2022-12-07T20:26:18;16.83;;;10.40;;
51366;SDS011;37458;49.428;8.646;2022-12-07T20:28:45;18.00;;;11.77;;
51366;SDS011;37458;49.428;8.646;2022-12-07T20:31:12;17.93;;;12.17;;
51366;SDS011;37458;49.428;8.646;2022-12-07T20:33:38;16.50;;;11.70;;
51366;SDS011;37458;49.428;8.646;2022-12-07T20:36:05;18.13;;;11.23;;
51366;SDS011;37458;49.428;8.646;2022-12-07T20:38:32;16.93;;;9.60;;
51366;SDS011;37458;49.428;8.646;2022-12-07T20:40:59;17.27;;;11.20;;
51366;SDS011;37458;49.428;8.646;2022-12-07T20:43:26;18.00;;;11.50;;
51366;SDS011;37458;49.428;8.646;2022-12-07T20:45:52;17.30;;;10.13;;
51366;SDS011;37458;49.428;8.646;2022-12-07T20:48:18;16.20;;;10.73;;
51366;SDS011;37458;49.428;8.646;2022-12-07T20:50:44;16.03;;;9.93;;
51366;SDS011;37458;49.428;8.646;2022-12-07T20:53:10;15.30;;;9.70;;
51366;SDS011;37458;49.428;8.646;2022-12-07T20:55:36;14.93;;;10.37;;
51366;SDS011;37458;49.428;8.646;2022-12-07T20:58:03;19.80;;;10.53;;
51366;SDS011;37458;49.428;8.646;2022-12-07T21:00:29;14.73;;;10.33;;
51366;SDS011;37458;49.428;8.646;2022-12-07T21:02:55;15.37;;;10.77;;
51366;SDS011;37458;49.428;8.646;2022-12-07T21:05:22;17.57;;;10.53;;
51366;SDS011;37458;49.428;8.646;2022-12-07T21:07:48;19.23;;;11.17;;
51366;SDS011;37458;49.428;8.646;2022-12-07T21:10:14;18.10;;;10.90;;
51366;SDS011;37458;49.428;8.646;2022-12-07T21:12:40;17.53;;;11.13;;
51366;SDS011;37458;49.428;8.646;2022-12-07T21:15:06;16.77;;;10.87;;
51366;SDS011;37458;49.428;8.646;2022-12-07T21:17:32;15.80;;;11.23;;
51366;SDS011;37458;49.428;8.646;2022-12-07T21:19:58;18.70;;;11.73;;
51366;SDS011;37458;49.428;8.646;2022-12-07T21:22:24;16.37;;;10.80;;
51366;SDS011;37458;49.428;8.646;2022-12-07T21:24:50;18.07;;;11.67;;
51366;SDS011;37458;49.428;8.646;2022-12-07T21:27:16;16.00;;;11.30;;
51366;SDS011;37458;49.428;8.646;2022-12-07T21:29:42;18.50;;;12.07;;
51366;SDS011;37458;49.428;8.646;2022-12-07T21:32:08;19.27;;;11.83;;
